sensor_id;sensor_type;location;lat;lon;timestamp;temperature;humidity
75705;DHT22;70013;44.726;37.760;2023-05-16T00:00:18;12.03;87.51
75705;DHT22;70013;44.726;37.760;2023-05-16T00:01:20;12.03;87.61
75705;DHT22;70013;44.726;37.760;2023-05-16T00:02:22;12.02;87.46
75705;DHT22;70013;44.726;37.760;2023-05-16T00:03:23;12.01;87.29
75705;DHT22;70013;44.726;37.760;2023-05-16T00:04:24;12.00;87.15
75705;DHT22;70013;44.726;37.760;2023-05-16T00:05:26;11.98;86.77
75705;DHT22;70013;44.726;37.760;2023-05-16T00:06:27;11.94;87.18
75705;DHT22;70013;44.726;37.760;2023-05-16T00:07:29;11.93;87.18
75705;DHT22;70013;44.726;37.760;2023-05-16T00:08:31;11.94;87.16
75705;DHT22;70013;44.726;37.760;2023-05-16T00:09:32;11.94;87.18
75705;DHT22;70013;44.726;37.760;2023-05-16T00:10:34;11.93;87.20
75705;DHT22;70013;44.726;37.760;2023-05-16T00:11:35;11.92;86.84
75705;DHT22;70013;44.726;37.760;2023-05-16T00:12:37;11.89;86.86
75705;DHT22;70013;44.726;37.760;2023-05-16T00:13:39;11.91;87.28
75705;DHT22;70013;44.726;37.760;2023-05-16T00:14:42;11.90;87.16
75705;DHT22;70013;44.726;37.760;2023-05-16T00:15:43;11.88;87.19
75705;DHT22;70013;44.726;37.760;2023-05-16T00:16:45;11.85;86.99
75705;DHT22;70013;44.726;37.760;2023-05-16T00:17:47;11.86;87.00
75705;DHT22;70013;44.726;37.760;2023-05-16T00:18:49;11.87;86.83
75705;DHT22;70013;44.726;37.760;2023-05-16T00:19:50;11.87;86.73
75705;DHT22;70013;44.726;37.760;2023-05-16T00:20:58;11.85;86.84
75705;DHT22;70013;44.726;37.760;2023-05-16T00:22:00;11.85;86.72
75705;DHT22;70013;44.726;37.760;2023-05-16T00:23:06;11.86;86.71
75705;DHT22;70013;44.726;37.760;2023-05-16T00:24:08;11.87;86.67
75705;DHT22;70013;44.726;37.760;2023-05-16T00:25:09;11.85;86.39
75705;DHT22;70013;44.726;37.760;2023-05-16T00:26:10;11.85;86.38
75705;DHT22;70013;44.726;37.760;2023-05-16T00:27:15;11.82;86.38
75705;DHT22;70013;44.726;37.760;2023-05-16T00:28:16;11.78;85.87
75705;DHT22;70013;44.726;37.760;2023-05-16T00:29:18;11.74;86.12
75705;DHT22;70013;44.726;37.760;2023-05-16T00:30:19;11.74;86.52
75705;DHT22;70013;44.726;37.760;2023-05-16T00:31:21;11.75;86.68
75705;DHT22;70013;44.726;37.760;2023-05-16T00:32:22;11.74;86.51
75705;DHT22;70013;44.726;37.760;2023-05-16T00:33:24;11.73;86.81
75705;DHT22;70013;44.726;37.760;2023-05-16T00:34:26;11.74;87.14
75705;DHT22;70013;44.726;37.760;2023-05-16T00:35:27;11.74;86.96
75705;DHT22;70013;44.726;37.760;2023-05-16T00:36:28;11.72;86.54
75705;DHT22;70013;44.726;37.760;2023-05-16T00:37:31;11.72;86.73
75705;DHT22;70013;44.726;37.760;2023-05-16T00:38:33;11.69;86.45
75705;DHT22;70013;44.726;37.760;2023-05-16T00:39:35;11.71;86.77
75705;DHT22;70013;44.726;37.760;2023-05-16T00:40:36;11.73;86.81
75705;DHT22;70013;44.726;37.760;2023-05-16T00:41:38;11.71;86.54
75705;DHT22;70013;44.726;37.760;2023-05-16T00:42:40;11.72;86.80
75705;DHT22;70013;44.726;37.760;2023-05-16T00:43:41;11.69;86.45
75705;DHT22;70013;44.726;37.760;2023-05-16T00:44:42;11.69;86.73
75705;DHT22;70013;44.726;37.760;2023-05-16T00:45:44;11.66;86.82
75705;DHT22;70013;44.726;37.760;2023-05-16T00:46:45;11.64;86.26
75705;DHT22;70013;44.726;37.760;2023-05-16T00:47:47;11.61;86.55
75705;DHT22;70013;44.726;37.760;2023-05-16T00:48:48;11.62;86.80
75705;DHT22;70013;44.726;37.760;2023-05-16T00:49:50;11.64;87.06
75705;DHT22;70013;44.726;37.760;2023-05-16T00:50:52;11.67;86.92
75705;DHT22;70013;44.726;37.760;2023-05-16T00:51:54;11.64;86.72
75705;DHT22;70013;44.726;37.760;2023-05-16T00:52:57;11.64;86.80
75705;DHT22;70013;44.726;37.760;2023-05-16T00:53:58;11.63;86.52
75705;DHT22;70013;44.726;37.760;2023-05-16T00:55:01;11.60;86.35
75705;DHT22;70013;44.726;37.760;2023-05-16T00:56:04;11.59;86.35
75705;DHT22;70013;44.726;37.760;2023-05-16T00:57:07;11.62;86.73
75705;DHT22;70013;44.726;37.760;2023-05-16T00:58:08;11.61;86.45
75705;DHT22;70013;44.726;37.760;2023-05-16T00:59:09;11.58;86.15
75705;DHT22;70013;44.726;37.760;2023-05-16T01:00:11;11.58;86.52
75705;DHT22;70013;44.726;37.760;2023-05-16T01:01:15;11.56;86.20
75705;DHT22;70013;44.726;37.760;2023-05-16T01:02:17;11.54;85.95
75705;DHT22;70013;44.726;37.760;2023-05-16T01:03:19;11.52;85.82
75705;DHT22;70013;44.726;37.760;2023-05-16T01:04:21;11.49;86.32
75705;DHT22;70013;44.726;37.760;2023-05-16T01:05:22;11.48;86.39
75705;DHT22;70013;44.726;37.760;2023-05-16T01:06:24;11.51;86.65
75705;DHT22;70013;44.726;37.760;2023-05-16T01:07:25;11.52;86.53
75705;DHT22;70013;44.726;37.760;2023-05-16T01:08:26;11.51;86.62
75705;DHT22;70013;44.726;37.760;2023-05-16T01:09:28;11.56;86.64
75705;DHT22;70013;44.726;37.760;2023-05-16T01:10:38;11.54;86.16
75705;DHT22;70013;44.726;37.760;2023-05-16T01:17:20;11.40;86.05
75705;DHT22;70013;44.726;37.760;2023-05-16T01:22:01;11.31;86.27
75705;DHT22;70013;44.726;37.760;2023-05-16T01:24:33;11.30;86.32
75705;DHT22;70013;44.726;37.760;2023-05-16T01:26:45;11.30;86.19
75705;DHT22;70013;44.726;37.760;2023-05-16T01:27:47;11.28;86.29
75705;DHT22;70013;44.726;37.760;2023-05-16T01:28:50;11.27;86.35
75705;DHT22;70013;44.726;37.760;2023-05-16T01:29:56;11.29;86.30
75705;DHT22;70013;44.726;37.760;2023-05-16T01:30:57;11.29;86.23
75705;DHT22;70013;44.726;37.760;2023-05-16T01:31:58;11.30;86.29
75705;DHT22;70013;44.726;37.760;2023-05-16T01:33:00;11.26;85.69
75705;DHT22;70013;44.726;37.760;2023-05-16T01:34:01;11.24;85.96
75705;DHT22;70013;44.726;37.760;2023-05-16T01:35:06;11.23;86.05
75705;DHT22;70013;44.726;37.760;2023-05-16T01:40:35;11.23;86.49
75705;DHT22;70013;44.726;37.760;2023-05-16T01:42:55;11.19;86.32
75705;DHT22;70013;44.726;37.760;2023-05-16T01:44:07;11.19;86.60
75705;DHT22;70013;44.726;37.760;2023-05-16T01:45:19;11.19;86.62
75705;DHT22;70013;44.726;37.760;2023-05-16T01:46:26;11.18;86.70
75705;DHT22;70013;44.726;37.760;2023-05-16T01:47:30;11.18;86.65
75705;DHT22;70013;44.726;37.760;2023-05-16T01:48:50;11.19;86.70
75705;DHT22;70013;44.726;37.760;2023-05-16T01:50:15;11.15;85.67
75705;DHT22;70013;44.726;37.760;2023-05-16T01:51:21;11.15;86.27
75705;DHT22;70013;44.726;37.760;2023-05-16T01:52:30;11.14;86.29
75705;DHT22;70013;44.726;37.760;2023-05-16T01:53:36;11.16;86.38
75705;DHT22;70013;44.726;37.760;2023-05-16T01:54:43;11.15;86.49
75705;DHT22;70013;44.726;37.760;2023-05-16T01:56:08;11.16;86.44
75705;DHT22;70013;44.726;37.760;2023-05-16T01:57:12;11.16;86.48
75705;DHT22;70013;44.726;37.760;2023-05-16T01:58:15;11.16;86.29
75705;DHT22;70013;44.726;37.760;2023-05-16T01:59:19;11.15;86.30
75705;DHT22;70013;44.726;37.760;2023-05-16T02:00:22;11.13;86.39
75705;DHT22;70013;44.726;37.760;2023-05-16T02:01:23;11.13;86.56
75705;DHT22;70013;44.726;37.760;2023-05-16T02:02:25;11.15;86.50
75705;DHT22;70013;44.726;37.760;2023-05-16T02:03:26;11.17;86.43
75705;DHT22;70013;44.726;37.760;2023-05-16T02:04:28;11.19;86.55
75705;DHT22;70013;44.726;37.760;2023-05-16T02:05:29;11.22;86.54
75705;DHT22;70013;44.726;37.760;2023-05-16T02:06:31;11.26;86.58
75705;DHT22;70013;44.726;37.760;2023-05-16T02:07:33;11.28;86.10
75705;DHT22;70013;44.726;37.760;2023-05-16T02:08:34;11.27;86.23
75705;DHT22;70013;44.726;37.760;2023-05-16T02:09:35;11.29;85.98
75705;DHT22;70013;44.726;37.760;2023-05-16T02:10:37;11.29;85.93
75705;DHT22;70013;44.726;37.760;2023-05-16T02:11:40;11.31;86.22
75705;DHT22;70013;44.726;37.760;2023-05-16T02:12:41;11.36;85.98
75705;DHT22;70013;44.726;37.760;2023-05-16T02:13:42;11.40;85.96
75705;DHT22;70013;44.726;37.760;2023-05-16T02:14:44;11.45;85.65
75705;DHT22;70013;44.726;37.760;2023-05-16T02:15:46;11.46;85.44
75705;DHT22;70013;44.726;37.760;2023-05-16T02:16:47;11.51;85.61
75705;DHT22;70013;44.726;37.760;2023-05-16T02:17:49;11.49;85.01
75705;DHT22;70013;44.726;37.760;2023-05-16T02:18:50;11.52;85.01
75705;DHT22;70013;44.726;37.760;2023-05-16T02:19:52;11.57;84.94
75705;DHT22;70013;44.726;37.760;2023-05-16T02:20:53;11.60;84.96
75705;DHT22;70013;44.726;37.760;2023-05-16T02:21:54;11.66;84.49
75705;DHT22;70013;44.726;37.760;2023-05-16T02:23:02;11.66;84.02
75705;DHT22;70013;44.726;37.760;2023-05-16T02:24:04;11.72;84.16
75705;DHT22;70013;44.726;37.760;2023-05-16T02:25:05;11.74;83.81
75705;DHT22;70013;44.726;37.760;2023-05-16T02:26:07;11.78;83.52
75705;DHT22;70013;44.726;37.760;2023-05-16T02:27:08;11.79;83.13
75705;DHT22;70013;44.726;37.760;2023-05-16T02:28:10;11.84;83.41
75705;DHT22;70013;44.726;37.760;2023-05-16T02:29:11;11.87;83.10
75705;DHT22;70013;44.726;37.760;2023-05-16T02:30:12;11.86;82.39
75705;DHT22;70013;44.726;37.760;2023-05-16T02:31:34;11.89;82.46
75705;DHT22;70013;44.726;37.760;2023-05-16T02:32:37;11.90;82.50
75705;DHT22;70013;44.726;37.760;2023-05-16T02:33:39;11.94;82.61
75705;DHT22;70013;44.726;37.760;2023-05-16T02:34:42;11.98;82.31
75705;DHT22;70013;44.726;37.760;2023-05-16T02:35:44;12.01;82.34
75705;DHT22;70013;44.726;37.760;2023-05-16T02:36:45;12.00;81.83
75705;DHT22;70013;44.726;37.760;2023-05-16T02:37:46;12.03;82.01
75705;DHT22;70013;44.726;37.760;2023-05-16T02:38:48;12.06;81.75
75705;DHT22;70013;44.726;37.760;2023-05-16T02:39:49;12.12;81.49
75705;DHT22;70013;44.726;37.760;2023-05-16T02:40:51;12.16;81.23
75705;DHT22;70013;44.726;37.760;2023-05-16T02:41:52;12.22;81.59
75705;DHT22;70013;44.726;37.760;2023-05-16T02:42:53;12.30;81.36
75705;DHT22;70013;44.726;37.760;2023-05-16T02:43:55;12.34;81.05
75705;DHT22;70013;44.726;37.760;2023-05-16T02:44:56;12.43;80.52
75705;DHT22;70013;44.726;37.760;2023-05-16T02:45:58;12.47;80.45
75705;DHT22;70013;44.726;37.760;2023-05-16T02:47:00;12.53;80.64
75705;DHT22;70013;44.726;37.760;2023-05-16T02:48:01;12.62;80.64
75705;DHT22;70013;44.726;37.760;2023-05-16T02:49:02;12.71;80.07
75705;DHT22;70013;44.726;37.760;2023-05-16T02:50:04;12.77;79.77
75705;DHT22;70013;44.726;37.760;2023-05-16T02:51:08;12.89;79.50
75705;DHT22;70013;44.726;37.760;2023-05-16T02:52:09;13.11;79.08
75705;DHT22;70013;44.726;37.760;2023-05-16T02:53:12;13.43;77.84
75705;DHT22;70013;44.726;37.760;2023-05-16T02:54:14;13.67;76.51
75705;DHT22;70013;44.726;37.760;2023-05-16T02:55:15;13.80;75.63
75705;DHT22;70013;44.726;37.760;2023-05-16T02:56:17;13.90;75.45
75705;DHT22;70013;44.726;37.760;2023-05-16T02:57:20;14.03;75.41
75705;DHT22;70013;44.726;37.760;2023-05-16T02:58:21;14.20;74.40
75705;DHT22;70013;44.726;37.760;2023-05-16T02:59:23;14.47;73.54
75705;DHT22;70013;44.726;37.760;2023-05-16T03:00:24;14.70;72.06
75705;DHT22;70013;44.726;37.760;2023-05-16T03:01:26;14.80;71.80
75705;DHT22;70013;44.726;37.760;2023-05-16T03:02:27;14.94;71.74
75705;DHT22;70013;44.726;37.760;2023-05-16T03:03:28;15.09;71.38
75705;DHT22;70013;44.726;37.760;2023-05-16T03:04:30;15.26;70.87
75705;DHT22;70013;44.726;37.760;2023-05-16T03:05:31;15.60;69.29
75705;DHT22;70013;44.726;37.760;2023-05-16T03:06:32;16.02;67.45
75705;DHT22;70013;44.726;37.760;2023-05-16T03:07:34;16.34;66.27
75705;DHT22;70013;44.726;37.760;2023-05-16T03:08:35;16.62;65.69
75705;DHT22;70013;44.726;37.760;2023-05-16T03:09:37;16.81;65.27
75705;DHT22;70013;44.726;37.760;2023-05-16T03:10:38;17.00;64.34
75705;DHT22;70013;44.726;37.760;2023-05-16T03:11:41;17.22;63.70
75705;DHT22;70013;44.726;37.760;2023-05-16T03:12:42;17.35;62.87
75705;DHT22;70013;44.726;37.760;2023-05-16T03:13:43;17.52;61.79
75705;DHT22;70013;44.726;37.760;2023-05-16T03:14:45;17.76;60.44
75705;DHT22;70013;44.726;37.760;2023-05-16T03:15:46;18.07;60.55
75705;DHT22;70013;44.726;37.760;2023-05-16T03:16:47;18.44;59.13
75705;DHT22;70013;44.726;37.760;2023-05-16T03:17:49;19.08;57.19
75705;DHT22;70013;44.726;37.760;2023-05-16T03:18:50;19.35;55.69
75705;DHT22;70013;44.726;37.760;2023-05-16T03:19:52;19.74;55.24
75705;DHT22;70013;44.726;37.760;2023-05-16T03:20:53;20.35;54.23
75705;DHT22;70013;44.726;37.760;2023-05-16T03:21:58;20.83;52.59
75705;DHT22;70013;44.726;37.760;2023-05-16T03:23:05;21.42;50.32
75705;DHT22;70013;44.726;37.760;2023-05-16T03:24:10;22.06;48.00
75705;DHT22;70013;44.726;37.760;2023-05-16T03:25:11;22.62;47.63
75705;DHT22;70013;44.726;37.760;2023-05-16T03:26:15;23.21;45.32
75705;DHT22;70013;44.726;37.760;2023-05-16T03:27:16;23.79;43.01
75705;DHT22;70013;44.726;37.760;2023-05-16T03:28:18;24.38;41.29
75705;DHT22;70013;44.726;37.760;2023-05-16T03:29:19;24.90;40.74
75705;DHT22;70013;44.726;37.760;2023-05-16T03:30:20;25.18;39.93
75705;DHT22;70013;44.726;37.760;2023-05-16T03:31:22;25.59;38.67
75705;DHT22;70013;44.726;37.760;2023-05-16T03:32:23;25.75;37.56
75705;DHT22;70013;44.726;37.760;2023-05-16T03:33:25;26.03;36.88
75705;DHT22;70013;44.726;37.760;2023-05-16T03:34:26;26.02;37.38
75705;DHT22;70013;44.726;37.760;2023-05-16T03:35:32;26.13;37.01
75705;DHT22;70013;44.726;37.760;2023-05-16T03:36:34;26.31;37.31
75705;DHT22;70013;44.726;37.760;2023-05-16T03:37:37;26.56;36.23
75705;DHT22;70013;44.726;37.760;2023-05-16T03:38:43;26.41;37.44
75705;DHT22;70013;44.726;37.760;2023-05-16T03:39:45;26.89;35.26
75705;DHT22;70013;44.726;37.760;2023-05-16T03:40:47;26.79;35.63
75705;DHT22;70013;44.726;37.760;2023-05-16T03:41:48;27.15;35.07
75705;DHT22;70013;44.726;37.760;2023-05-16T03:42:49;27.58;33.86
75705;DHT22;70013;44.726;37.760;2023-05-16T03:43:51;27.44;35.73
75705;DHT22;70013;44.726;37.760;2023-05-16T03:44:52;27.11;35.24
75705;DHT22;70013;44.726;37.760;2023-05-16T03:45:54;26.63;35.84
75705;DHT22;70013;44.726;37.760;2023-05-16T03:46:56;26.25;37.14
75705;DHT22;70013;44.726;37.760;2023-05-16T03:47:57;25.86;36.78
75705;DHT22;70013;44.726;37.760;2023-05-16T03:48:58;25.95;37.95
75705;DHT22;70013;44.726;37.760;2023-05-16T03:50:00;25.92;37.95
75705;DHT22;70013;44.726;37.760;2023-05-16T03:51:01;26.25;38.05
75705;DHT22;70013;44.726;37.760;2023-05-16T03:52:04;27.16;36.11
75705;DHT22;70013;44.726;37.760;2023-05-16T03:53:05;27.91;34.28
75705;DHT22;70013;44.726;37.760;2023-05-16T03:54:07;28.60;33.12
75705;DHT22;70013;44.726;37.760;2023-05-16T03:55:08;29.08;31.71
75705;DHT22;70013;44.726;37.760;2023-05-16T03:56:09;29.15;30.88
75705;DHT22;70013;44.726;37.760;2023-05-16T03:57:11;29.60;30.40
75705;DHT22;70013;44.726;37.760;2023-05-16T03:58:12;30.06;28.68
75705;DHT22;70013;44.726;37.760;2023-05-16T03:59:13;29.76;29.57
75705;DHT22;70013;44.726;37.760;2023-05-16T04:00:15;29.02;30.82
75705;DHT22;70013;44.726;37.760;2023-05-16T04:01:17;28.29;32.67
75705;DHT22;70013;44.726;37.760;2023-05-16T04:02:18;27.71;33.67
75705;DHT22;70013;44.726;37.760;2023-05-16T04:03:19;27.15;34.76
75705;DHT22;70013;44.726;37.760;2023-05-16T04:04:28;26.70;35.11
75705;DHT22;70013;44.726;37.760;2023-05-16T04:05:29;26.41;36.00
75705;DHT22;70013;44.726;37.760;2023-05-16T04:06:31;26.47;35.91
75705;DHT22;70013;44.726;37.760;2023-05-16T04:07:33;26.17;36.62
75705;DHT22;70013;44.726;37.760;2023-05-16T04:08:34;25.76;38.04
75705;DHT22;70013;44.726;37.760;2023-05-16T04:09:35;25.34;39.01
75705;DHT22;70013;44.726;37.760;2023-05-16T04:10:37;25.04;39.48
75705;DHT22;70013;44.726;37.760;2023-05-16T04:11:38;24.74;39.91
75705;DHT22;70013;44.726;37.760;2023-05-16T04:12:39;24.63;40.48
75705;DHT22;70013;44.726;37.760;2023-05-16T04:13:41;24.43;40.64
75705;DHT22;70013;44.726;37.760;2023-05-16T04:14:42;24.25;41.39
75705;DHT22;70013;44.726;37.760;2023-05-16T04:15:44;24.11;42.36
75705;DHT22;70013;44.726;37.760;2023-05-16T04:16:45;24.39;43.15
75705;DHT22;70013;44.726;37.760;2023-05-16T04:17:47;24.63;41.24
75705;DHT22;70013;44.726;37.760;2023-05-16T04:18:48;24.56;40.47
75705;DHT22;70013;44.726;37.760;2023-05-16T04:19:50;24.49;40.22
75705;DHT22;70013;44.726;37.760;2023-05-16T04:20:51;24.55;40.76
75705;DHT22;70013;44.726;37.760;2023-05-16T04:21:52;24.59;41.27
75705;DHT22;70013;44.726;37.760;2023-05-16T04:22:59;24.77;40.92
75705;DHT22;70013;44.726;37.760;2023-05-16T04:24:01;25.28;39.38
75705;DHT22;70013;44.726;37.760;2023-05-16T04:25:03;26.06;38.11
75705;DHT22;70013;44.726;37.760;2023-05-16T04:26:04;26.69;37.21
75705;DHT22;70013;44.726;37.760;2023-05-16T04:27:06;26.86;36.53
75705;DHT22;70013;44.726;37.760;2023-05-16T04:28:10;27.10;36.20
75705;DHT22;70013;44.726;37.760;2023-05-16T04:29:11;27.87;34.38
75705;DHT22;70013;44.726;37.760;2023-05-16T04:30:14;28.37;34.16
75705;DHT22;70013;44.726;37.760;2023-05-16T04:31:16;28.60;32.93
75705;DHT22;70013;44.726;37.760;2023-05-16T04:32:17;29.43;32.22
75705;DHT22;70013;44.726;37.760;2023-05-16T04:33:19;30.52;29.36
75705;DHT22;70013;44.726;37.760;2023-05-16T04:34:20;31.37;28.61
75705;DHT22;70013;44.726;37.760;2023-05-16T04:35:23;32.20;26.91
75705;DHT22;70013;44.726;37.760;2023-05-16T04:36:24;32.76;25.91
75705;DHT22;70013;44.726;37.760;2023-05-16T04:37:26;33.38;25.66
75705;DHT22;70013;44.726;37.760;2023-05-16T04:38:27;34.01;22.98
75705;DHT22;70013;44.726;37.760;2023-05-16T04:39:28;34.69;22.89
75705;DHT22;70013;44.726;37.760;2023-05-16T04:40:30;35.42;21.44
75705;DHT22;70013;44.726;37.760;2023-05-16T04:41:31;35.97;20.10
75705;DHT22;70013;44.726;37.760;2023-05-16T04:42:33;36.57;20.15
75705;DHT22;70013;44.726;37.760;2023-05-16T04:43:35;37.01;19.25
75705;DHT22;70013;44.726;37.760;2023-05-16T04:44:36;37.30;20.05
75705;DHT22;70013;44.726;37.760;2023-05-16T04:45:38;37.80;17.74
75705;DHT22;70013;44.726;37.760;2023-05-16T04:46:39;38.17;17.34
75705;DHT22;70013;44.726;37.760;2023-05-16T04:47:41;38.50;17.35
75705;DHT22;70013;44.726;37.760;2023-05-16T04:48:42;38.83;15.54
75705;DHT22;70013;44.726;37.760;2023-05-16T04:49:44;39.18;15.93
75705;DHT22;70013;44.726;37.760;2023-05-16T04:50:45;39.51;15.03
75705;DHT22;70013;44.726;37.760;2023-05-16T04:51:47;39.76;14.87
75705;DHT22;70013;44.726;37.760;2023-05-16T04:52:48;40.18;13.90
75705;DHT22;70013;44.726;37.760;2023-05-16T04:53:50;40.47;12.42
75705;DHT22;70013;44.726;37.760;2023-05-16T04:54:51;40.83;13.31
75705;DHT22;70013;44.726;37.760;2023-05-16T04:55:52;41.07;12.49
75705;DHT22;70013;44.726;37.760;2023-05-16T04:56:54;41.20;14.03
75705;DHT22;70013;44.726;37.760;2023-05-16T04:57:55;40.81;11.56
75705;DHT22;70013;44.726;37.760;2023-05-16T04:58:57;40.81;13.55
75705;DHT22;70013;44.726;37.760;2023-05-16T04:59:58;40.99;11.52
75705;DHT22;70013;44.726;37.760;2023-05-16T05:00:59;41.27;14.74
75705;DHT22;70013;44.726;37.760;2023-05-16T05:02:01;41.51;12.56
75705;DHT22;70013;44.726;37.760;2023-05-16T05:03:02;41.91;14.74
75705;DHT22;70013;44.726;37.760;2023-05-16T05:04:04;42.01;15.76
75705;DHT22;70013;44.726;37.760;2023-05-16T05:05:07;42.35;11.73
75705;DHT22;70013;44.726;37.760;2023-05-16T05:06:08;42.32;11.38
75705;DHT22;70013;44.726;37.760;2023-05-16T05:07:10;42.49;10.81
75705;DHT22;70013;44.726;37.760;2023-05-16T05:08:11;42.61;12.17
75705;DHT22;70013;44.726;37.760;2023-05-16T05:09:12;42.51;11.65
75705;DHT22;70013;44.726;37.760;2023-05-16T05:10:14;42.60;14.66
75705;DHT22;70013;44.726;37.760;2023-05-16T05:11:15;42.39;9.34
75705;DHT22;70013;44.726;37.760;2023-05-16T05:12:17;42.54;13.35
75705;DHT22;70013;44.726;37.760;2023-05-16T05:13:18;42.74;10.49
75705;DHT22;70013;44.726;37.760;2023-05-16T05:14:20;42.93;12.43
75705;DHT22;70013;44.726;37.760;2023-05-16T05:15:21;43.13;14.12
75705;DHT22;70013;44.726;37.760;2023-05-16T05:16:23;43.10;10.19
75705;DHT22;70013;44.726;37.760;2023-05-16T05:17:24;42.83;13.73
75705;DHT22;70013;44.726;37.760;2023-05-16T05:18:25;43.35;11.71
75705;DHT22;70013;44.726;37.760;2023-05-16T05:19:27;43.70;10.95
75705;DHT22;70013;44.726;37.760;2023-05-16T05:20:28;43.03;12.37
75705;DHT22;70013;44.726;37.760;2023-05-16T05:21:31;43.37;14.68
75705;DHT22;70013;44.726;37.760;2023-05-16T05:22:32;42.73;11.33
75705;DHT22;70013;44.726;37.760;2023-05-16T05:23:41;42.98;10.17
75705;DHT22;70013;44.726;37.760;2023-05-16T05:24:42;42.38;9.78
75705;DHT22;70013;44.726;37.760;2023-05-16T05:25:44;42.45;13.46
75705;DHT22;70013;44.726;37.760;2023-05-16T05:26:46;42.69;9.67
75705;DHT22;70013;44.726;37.760;2023-05-16T05:27:47;42.22;12.68
75705;DHT22;70013;44.726;37.760;2023-05-16T05:28:48;42.96;11.72
75705;DHT22;70013;44.726;37.760;2023-05-16T05:29:50;42.09;11.11
75705;DHT22;70013;44.726;37.760;2023-05-16T05:30:51;41.48;11.22
75705;DHT22;70013;44.726;37.760;2023-05-16T05:31:53;40.47;11.91
75705;DHT22;70013;44.726;37.760;2023-05-16T05:32:54;40.01;11.99
75705;DHT22;70013;44.726;37.760;2023-05-16T05:33:56;39.34;15.13
75705;DHT22;70013;44.726;37.760;2023-05-16T05:34:57;40.37;11.36
75705;DHT22;70013;44.726;37.760;2023-05-16T05:35:59;39.58;12.47
75705;DHT22;70013;44.726;37.760;2023-05-16T05:37:00;38.59;13.17
75705;DHT22;70013;44.726;37.760;2023-05-16T05:38:01;38.47;13.30
75705;DHT22;70013;44.726;37.760;2023-05-16T05:39:03;37.41;15.16
75705;DHT22;70013;44.726;37.760;2023-05-16T05:40:05;37.71;14.60
75705;DHT22;70013;44.726;37.760;2023-05-16T05:41:07;36.90;16.18
75705;DHT22;70013;44.726;37.760;2023-05-16T05:42:09;37.35;15.67
75705;DHT22;70013;44.726;37.760;2023-05-16T05:43:11;37.70;15.39
75705;DHT22;70013;44.726;37.760;2023-05-16T05:44:13;36.93;15.84
75705;DHT22;70013;44.726;37.760;2023-05-16T05:45:14;35.97;18.05
75705;DHT22;70013;44.726;37.760;2023-05-16T05:46:16;35.20;17.71
75705;DHT22;70013;44.726;37.760;2023-05-16T05:47:17;35.01;18.33
75705;DHT22;70013;44.726;37.760;2023-05-16T05:48:19;36.41;16.54
75705;DHT22;70013;44.726;37.760;2023-05-16T05:49:20;36.22;16.35
75705;DHT22;70013;44.726;37.760;2023-05-16T05:50:23;36.40;18.41
75705;DHT22;70013;44.726;37.760;2023-05-16T05:51:24;36.25;17.01
75705;DHT22;70013;44.726;37.760;2023-05-16T05:52:26;35.64;19.68
75705;DHT22;70013;44.726;37.760;2023-05-16T05:53:28;36.96;17.05
75705;DHT22;70013;44.726;37.760;2023-05-16T05:54:33;36.23;16.25
75705;DHT22;70013;44.726;37.760;2023-05-16T05:55:35;35.92;17.03
75705;DHT22;70013;44.726;37.760;2023-05-16T05:56:36;36.42;16.32
75705;DHT22;70013;44.726;37.760;2023-05-16T05:57:38;36.84;16.56
75705;DHT22;70013;44.726;37.760;2023-05-16T05:58:40;37.33;15.08
75705;DHT22;70013;44.726;37.760;2023-05-16T05:59:42;38.08;16.08
75705;DHT22;70013;44.726;37.760;2023-05-16T06:00:44;39.11;13.32
75705;DHT22;70013;44.726;37.760;2023-05-16T06:01:45;37.14;15.28
75705;DHT22;70013;44.726;37.760;2023-05-16T06:02:47;35.94;17.03
75705;DHT22;70013;44.726;37.760;2023-05-16T06:03:48;34.88;18.13
75705;DHT22;70013;44.726;37.760;2023-05-16T06:04:50;35.48;20.75
75705;DHT22;70013;44.726;37.760;2023-05-16T06:05:51;36.04;17.25
75705;DHT22;70013;44.726;37.760;2023-05-16T06:06:53;35.26;18.33
75705;DHT22;70013;44.726;37.760;2023-05-16T06:07:54;35.07;18.38
75705;DHT22;70013;44.726;37.760;2023-05-16T06:08:56;34.73;19.16
75705;DHT22;70013;44.726;37.760;2023-05-16T06:09:57;34.73;19.00
75705;DHT22;70013;44.726;37.760;2023-05-16T06:10:59;34.17;19.86
75705;DHT22;70013;44.726;37.760;2023-05-16T06:12:01;33.83;19.86
75705;DHT22;70013;44.726;37.760;2023-05-16T06:13:04;34.51;19.49
75705;DHT22;70013;44.726;37.760;2023-05-16T06:14:05;35.48;18.12
75705;DHT22;70013;44.726;37.760;2023-05-16T06:15:09;35.60;18.53
75705;DHT22;70013;44.726;37.760;2023-05-16T06:16:10;34.85;18.65
75705;DHT22;70013;44.726;37.760;2023-05-16T06:17:12;34.92;18.67
75705;DHT22;70013;44.726;37.760;2023-05-16T06:18:13;35.80;16.45
75705;DHT22;70013;44.726;37.760;2023-05-16T06:19:15;35.23;18.58
75705;DHT22;70013;44.726;37.760;2023-05-16T06:20:17;36.56;15.65
75705;DHT22;70013;44.726;37.760;2023-05-16T06:21:18;35.63;18.12
75705;DHT22;70013;44.726;37.760;2023-05-16T06:22:20;37.43;16.19
75705;DHT22;70013;44.726;37.760;2023-05-16T06:23:26;36.02;15.74
75705;DHT22;70013;44.726;37.760;2023-05-16T06:24:28;36.33;16.80
75705;DHT22;70013;44.726;37.760;2023-05-16T06:25:30;35.65;16.43
75705;DHT22;70013;44.726;37.760;2023-05-16T06:26:32;36.07;18.34
75705;DHT22;70013;44.726;37.760;2023-05-16T06:27:33;37.02;14.88
75705;DHT22;70013;44.726;37.760;2023-05-16T06:28:35;35.58;16.46
75705;DHT22;70013;44.726;37.760;2023-05-16T06:29:36;37.42;15.79
75705;DHT22;70013;44.726;37.760;2023-05-16T06:30:38;37.07;15.05
75705;DHT22;70013;44.726;37.760;2023-05-16T06:31:39;36.87;15.97
75705;DHT22;70013;44.726;37.760;2023-05-16T06:32:40;36.81;14.45
75705;DHT22;70013;44.726;37.760;2023-05-16T06:33:42;34.96;17.17
75705;DHT22;70013;44.726;37.760;2023-05-16T06:34:43;33.56;19.66
75705;DHT22;70013;44.726;37.760;2023-05-16T06:35:45;32.91;21.11
75705;DHT22;70013;44.726;37.760;2023-05-16T06:36:48;32.81;23.34
75705;DHT22;70013;44.726;37.760;2023-05-16T06:37:50;33.96;21.99
75705;DHT22;70013;44.726;37.760;2023-05-16T06:38:51;34.00;19.34
75705;DHT22;70013;44.726;37.760;2023-05-16T06:39:52;34.36;19.29
75705;DHT22;70013;44.726;37.760;2023-05-16T06:40:54;34.38;18.66
75705;DHT22;70013;44.726;37.760;2023-05-16T06:41:55;33.90;19.54
75705;DHT22;70013;44.726;37.760;2023-05-16T06:42:57;33.62;19.50
75705;DHT22;70013;44.726;37.760;2023-05-16T06:43:58;33.26;20.99